Time;durP1;ratioP1;P1;durP2;ratioP2;P2;SDS_P1;SDS_P2;PMS_P1;PMS_P2;Temp;Humidity;BMP_temperature;BMP_pressure;BME280_temperature;BME280_humidity;BME280_pressure;Samples;Min_cycle;Max_cycle;Signal;HPM_P1;HPM_P2
2021/06/05 00:00:31;;;;;;;0.10;0.10;;;14.60;56.10;;;;;;5113520;28;20122;-68
2021/06/05 00:03:00;;;;;;;0.10;0.10;;;14.60;56.20;;;;;;5097156;28;20047;-68
2021/06/05 00:05:28;;;;;;;0.10;0.10;;;14.60;56.20;;;;;;5113372;28;20130;-68
2021/06/05 00:07:55;;;;;;;0.10;0.10;;;14.60;56.40;;;;;;5108127;28;20138;-68
2021/06/05 00:10:30;;;;;;;0.20;0.10;;;14.60;56.70;;;;;;5103831;28;20688;-68
2021/06/05 00:12:57;;;;;;;0.35;0.10;;;14.60;56.90;;;;;;5113334;28;20582;-68
2021/06/05 00:15:34;;;;;;;0.10;0.10;;;14.50;57.00;;;;;;5113044;28;20039;-68
2021/06/05 00:18:02;;;;;;;0.10;0.10;;;14.50;57.30;;;;;;5113187;28;20091;-68
2021/06/05 00:20:30;;;;;;;0.20;0.20;;;14.50;57.50;;;;;;5112576;28;20447;-68
2021/06/05 00:23:02;;;;;;;0.25;0.10;;;14.40;57.80;;;;;;5113114;28;20128;-68
2021/06/05 00:25:30;;;;;;;0.20;0.20;;;14.40;58.10;;;;;;5112810;28;20130;-68
2021/06/05 00:27:57;;;;;;;0.30;0.13;;;14.40;58.30;;;;;;5133291;27;20055;-68
2021/06/05 00:30:24;;;;;;;0.45;0.10;;;14.40;58.60;;;;;;5133378;27;20043;-68
2021/06/05 00:32:51;;;;;;;0.20;0.20;;;14.40;58.60;;;;;;5134012;27;20055;-68
2021/06/05 00:35:18;;;;;;;0.10;0.10;;;14.40;59.10;;;;;;5132439;27;20547;-68
2021/06/05 00:37:44;;;;;;;0.10;0.10;;;14.30;59.10;;;;;;5132773;27;20538;-68
2021/06/05 00:40:14;;;;;;;0.10;0.10;;;14.30;59.10;;;;;;5132951;27;20470;-69
2021/06/05 00:42:40;;;;;;;0.20;0.20;;;14.30;59.20;;;;;;5131330;27;20143;-68
2021/06/05 00:45:08;;;;;;;0.20;0.20;;;14.30;59.40;;;;;;5133183;27;20122;-68
2021/06/05 00:47:35;;;;;;;0.13;0.13;;;14.30;59.60;;;;;;5132286;27;20565;-69
2021/06/05 00:50:02;;;;;;;0.20;0.20;;;14.30;59.70;;;;;;5133098;27;20050;-69
2021/06/05 00:52:29;;;;;;;0.10;0.10;;;14.20;59.60;;;;;;5133117;27;20054;-68
2021/06/05 00:54:56;;;;;;;0.03;0.03;;;14.20;59.70;;;;;;5132206;27;20575;-68
2021/06/05 00:57:25;;;;;;;0.20;0.20;;;14.20;60.00;;;;;;5130107;27;20039;-68
2021/06/05 00:59:52;;;;;;;0.20;0.20;;;14.20;60.20;;;;;;5132874;27;20043;-69
2021/06/05 01:02:18;;;;;;;0.00;0.00;;;14.20;60.20;;;;;;5131294;27;20091;-69
2021/06/05 01:04:45;;;;;;;0.20;0.20;;;14.20;60.10;;;;;;5129492;27;20072;-68
2021/06/05 01:07:36;;;;;;;0.20;0.20;;;14.10;60.20;;;;;;5132915;27;20547;-68
2021/06/05 01:10:15;;;;;;;0.32;0.10;;;14.10;60.20;;;;;;5113088;27;20100;-68
2021/06/05 01:12:53;;;;;;;0.20;0.20;;;14.10;60.40;;;;;;5112217;28;20063;-69
2021/06/05 01:15:30;;;;;;;0.00;0.00;;;14.10;60.30;;;;;;5098380;27;20415;-69
2021/06/05 01:18:05;;;;;;;0.17;0.17;;;14.10;60.40;;;;;;5112266;28;20050;-69
2021/06/05 01:20:47;;;;;;;0.20;0.20;;;14.00;60.70;;;;;;5113464;27;20044;-69
2021/06/05 01:23:27;;;;;;;0.55;0.20;;;14.00;60.70;;;;;;5112373;28;20482;-69
2021/06/05 01:25:59;;;;;;;0.00;0.00;;;14.00;60.70;;;;;;5112463;28;20050;-69
2021/06/05 01:28:45;;;;;;;0.10;0.10;;;14.00;60.70;;;;;;5113384;27;20094;-69
2021/06/05 01:31:17;;;;;;;0.10;0.10;;;14.00;60.80;;;;;;5112761;27;20066;-69
2021/06/05 01:33:45;;;;;;;0.10;0.10;;;13.90;61.00;;;;;;5113072;28;20043;-69
2021/06/05 01:36:13;;;;;;;0.25;0.25;;;13.90;61.50;;;;;;5112768;28;20052;-69
2021/06/05 01:38:45;;;;;;;0.20;0.20;;;13.90;61.70;;;;;;5112671;28;20059;-69
2021/06/05 01:41:14;;;;;;;0.20;0.20;;;13.80;61.70;;;;;;5105243;28;20127;-69
2021/06/05 01:43:43;;;;;;;0.10;0.10;;;13.90;61.90;;;;;;5112672;28;20052;-69
2021/06/05 01:46:11;;;;;;;0.10;0.10;;;13.80;61.70;;;;;;5112451;28;20123;-69
2021/06/05 01:48:37;;;;;;;0.10;0.10;;;13.80;61.70;;;;;;5116678;27;20538;-69
2021/06/05 01:51:09;;;;;;;0.15;0.15;;;13.80;61.70;;;;;;5117417;27;20180;-69
2021/06/05 01:53:45;;;;;;;0.10;0.10;;;13.80;61.80;;;;;;5116528;27;20079;-69
2021/06/05 01:56:28;;;;;;;0.15;0.15;;;13.80;62.00;;;;;;5117312;27;20173;-69
2021/06/05 01:58:55;;;;;;;0.43;0.20;;;13.80;62.00;;;;;;5115815;27;20133;-69
2021/06/05 02:01:22;;;;;;;0.10;0.10;;;13.80;62.10;;;;;;5117162;27;20126;-70
2021/06/05 02:03:49;;;;;;;0.10;0.10;;;13.80;62.20;;;;;;5097779;28;20097;-69
2021/06/05 02:06:15;;;;;;;0.35;0.25;;;13.70;62.40;;;;;;5116736;27;20040;-69
2021/06/05 02:08:42;;;;;;;0.10;0.10;;;13.70;62.70;;;;;;5096093;28;20134;-69
2021/06/05 02:11:12;;;;;;;0.10;0.10;;;13.70;62.70;;;;;;5116160;27;20173;-69
2021/06/05 02:13:50;;;;;;;0.10;0.10;;;13.70;62.70;;;;;;5115546;28;20055;-69
2021/06/05 02:16:29;;;;;;;0.10;0.10;;;13.70;62.70;;;;;;5115734;28;20127;-69
2021/06/05 02:19:01;;;;;;;0.10;0.10;;;13.70;62.70;;;;;;5115509;28;20092;-69
2021/06/05 02:21:30;;;;;;;0.20;0.20;;;13.70;62.70;;;;;;5115698;28;20092;-69
2021/06/05 02:24:08;;;;;;;0.10;0.10;;;13.60;62.70;;;;;;5115038;28;20546;-70
2021/06/05 02:26:40;;;;;;;0.15;0.15;;;13.60;62.90;;;;;;5115133;28;20086;-69
2021/06/05 02:29:09;;;;;;;0.20;0.20;;;13.60;63.00;;;;;;5115453;28;20044;-69
2021/06/05 02:31:38;;;;;;;0.08;0.08;;;13.60;63.00;;;;;;5115549;28;20130;-69
2021/06/05 02:34:10;;;;;;;0.30;0.20;;;13.60;63.40;;;;;;5114999;28;20040;-69
2021/06/05 02:36:42;;;;;;;0.10;0.10;;;13.60;63.50;;;;;;5119899;27;20136;-69
2021/06/05 02:39:10;;;;;;;0.10;0.10;;;13.50;63.70;;;;;;5114825;28;20039;-69
2021/06/05 02:41:42;;;;;;;0.10;0.10;;;13.50;64.10;;;;;;5114976;28;20043;-69
2021/06/05 02:44:09;;;;;;;0.10;0.10;;;13.50;64.20;;;;;;5123393;27;20173;-69
2021/06/05 02:46:38;;;;;;;0.10;0.10;;;13.50;64.70;;;;;;5114566;28;20571;-69
2021/06/05 02:49:19;;;;;;;0.10;0.10;;;13.50;64.70;;;;;;5114889;28;20066;-69
2021/06/05 02:51:49;;;;;;;0.20;0.15;;;13.40;64.60;;;;;;5114469;28;20442;-70
2021/06/05 02:54:16;;;;;;;0.33;0.33;;;13.40;64.60;;;;;;5096121;28;20485;-71
2021/06/05 02:56:43;;;;;;;0.20;0.20;;;13.40;64.70;;;;;;5114541;28;20870;-69
2021/06/05 02:59:09;;;;;;;0.13;0.13;;;13.40;64.90;;;;;;5116457;27;20043;-69
2021/06/05 03:01:36;;;;;;;0.20;0.20;;;13.40;65.00;;;;;;5114761;28;20174;-69
2021/06/05 03:04:03;;;;;;;0.20;0.20;;;13.40;65.20;;;;;;5114616;28;20047;-68
2021/06/05 03:06:31;;;;;;;0.20;0.20;;;13.40;65.20;;;;;;5100071;28;20553;-70
2021/06/05 03:08:58;;;;;;;0.17;0.10;;;13.40;65.10;;;;;;5114446;28;20165;-69
2021/06/05 03:11:26;;;;;;;0.22;0.22;;;13.40;65.10;;;;;;5114027;28;20051;-70
2021/06/05 03:13:53;;;;;;;0.10;0.10;;;13.30;65.10;;;;;;5114255;28;20547;-68
2021/06/05 03:16:20;;;;;;;0.20;0.20;;;13.40;65.30;;;;;;5114769;28;20060;-69
2021/06/05 03:18:46;;;;;;;0.28;0.15;;;13.30;65.20;;;;;;5114138;28;20505;-69
2021/06/05 03:21:16;;;;;;;0.10;0.10;;;13.30;65.20;;;;;;5115379;27;20047;-69
2021/06/05 03:23:44;;;;;;;0.15;0.15;;;13.30;65.10;;;;;;5114170;28;20086;-69
2021/06/05 03:26:11;;;;;;;0.20;0.20;;;13.30;65.10;;;;;;5114227;28;20455;-69
2021/06/05 03:28:38;;;;;;;0.10;0.10;;;13.20;65.00;;;;;;5116080;27;20189;-69
2021/06/05 03:31:05;;;;;;;0.10;0.10;;;13.20;65.10;;;;;;5114241;28;20406;-69
2021/06/05 03:33:32;;;;;;;0.13;0.13;;;13.20;65.20;;;;;;5113947;28;20203;-69
2021/06/05 03:35:58;;;;;;;0.20;0.20;;;13.10;65.20;;;;;;5113756;28;20510;-68
2021/06/05 03:38:26;;;;;;;0.20;0.20;;;13.10;65.30;;;;;;5113912;28;20049;-69
2021/06/05 03:40:53;;;;;;;0.10;0.10;;;13.00;65.40;;;;;;5113941;28;20048;-69
2021/06/05 03:43:20;;;;;;;0.20;0.15;;;13.00;65.40;;;;;;5106672;27;20047;-69
2021/06/05 03:45:47;;;;;;;0.17;0.10;;;13.00;65.50;;;;;;5115862;27;20047;-69
2021/06/05 03:48:14;;;;;;;0.30;0.13;;;13.00;65.60;;;;;;5114045;28;20093;-69
2021/06/05 03:50:50;;;;;;;0.17;0.17;;;12.90;65.50;;;;;;5113642;28;20054;-68
2021/06/05 03:53:18;;;;;;;0.15;0.15;;;12.90;65.60;;;;;;5119254;27;20122;-69
2021/06/05 03:55:45;;;;;;;0.20;0.20;;;12.90;65.70;;;;;;5118196;27;20505;-69
2021/06/05 03:58:12;;;;;;;0.10;0.10;;;12.80;65.60;;;;;;5113714;28;20131;-68
2021/06/05 04:00:41;;;;;;;0.20;0.20;;;12.80;65.60;;;;;;5113571;28;20491;-69
2021/06/05 04:03:08;;;;;;;0.10;0.10;;;12.80;65.80;;;;;;5113587;28;20100;-68
2021/06/05 04:05:36;;;;;;;0.10;0.10;;;12.80;65.80;;;;;;5113473;28;20044;-69
2021/06/05 04:08:03;;;;;;;0.10;0.10;;;12.80;65.90;;;;;;5113213;28;20116;-69
2021/06/05 04:10:30;;;;;;;0.28;0.28;;;12.80;65.90;;;;;;5112954;28;20048;-69
2021/06/05 04:13:00;;;;;;;0.00;0.00;;;12.80;66.00;;;;;;5113164;28;20551;-69
2021/06/05 04:15:28;;;;;;;0.10;0.10;;;12.80;66.20;;;;;;5113089;28;20097;-69
2021/06/05 04:18:11;;;;;;;0.10;0.10;;;12.80;66.40;;;;;;5112793;28;20135;-69
2021/06/05 04:20:39;;;;;;;0.10;0.10;;;12.80;66.50;;;;;;5099671;28;20195;-68
2021/06/05 04:23:07;;;;;;;0.40;0.20;;;12.80;66.80;;;;;;5112773;28;20407;-69
2021/06/05 04:25:34;;;;;;;0.22;0.20;;;12.80;66.70;;;;;;5112810;28;20181;-69
2021/06/05 04:28:00;;;;;;;0.20;0.20;;;12.80;66.90;;;;;;5112839;28;20134;-69
2021/06/05 04:30:29;;;;;;;0.17;0.17;;;12.80;67.10;;;;;;5112967;28;20052;-69
2021/06/05 04:32:56;;;;;;;0.20;0.20;;;12.80;67.20;;;;;;5112723;28;20083;-69
2021/06/05 04:35:25;;;;;;;0.30;0.30;;;12.80;67.30;;;;;;5112599;28;20053;-69
2021/06/05 04:37:51;;;;;;;0.10;0.10;;;12.80;67.30;;;;;;5112550;28;20043;-69
2021/06/05 04:40:20;;;;;;;0.22;0.22;;;12.80;67.20;;;;;;5102265;27;20097;-69
2021/06/05 04:42:50;;;;;;;0.35;0.20;;;12.80;67.40;;;;;;5112259;28;20100;-69
2021/06/05 04:45:18;;;;;;;0.25;0.25;;;12.80;67.60;;;;;;5119535;27;20040;-69
2021/06/05 04:47:45;;;;;;;0.32;0.32;;;12.80;67.70;;;;;;5112151;28;20516;-69
2021/06/05 04:50:13;;;;;;;0.10;0.10;;;12.80;68.00;;;;;;5120427;27;20044;-70
2021/06/05 04:52:39;;;;;;;0.40;0.20;;;12.80;68.10;;;;;;5107324;27;20054;-69
2021/06/05 04:55:08;;;;;;;0.20;0.20;;;12.80;68.40;;;;;;5118132;27;20455;-69
2021/06/05 04:57:35;;;;;;;0.20;0.20;;;12.80;68.70;;;;;;5120612;27;20052;-68
2021/06/05 05:00:08;;;;;;;0.40;0.30;;;12.80;69.10;;;;;;5119809;27;20197;-70
2021/06/05 05:02:35;;;;;;;0.28;0.28;;;12.80;69.10;;;;;;5118998;27;20043;-69
2021/06/05 05:05:03;;;;;;;0.50;0.50;;;12.80;69.00;;;;;;5120976;27;20063;-68
2021/06/05 05:07:30;;;;;;;0.40;0.40;;;12.90;69.20;;;;;;5117655;27;20047;-68
2021/06/05 05:09:56;;;;;;;0.30;0.30;;;12.90;69.40;;;;;;5121112;27;20046;-68
2021/06/05 05:12:22;;;;;;;0.28;0.28;;;12.90;69.40;;;;;;5112141;28;20542;-68
2021/06/05 05:14:49;;;;;;;0.40;0.40;;;13.00;69.30;;;;;;5112150;28;20126;-68
2021/06/05 05:17:15;;;;;;;0.30;0.30;;;13.00;69.50;;;;;;5094270;28;20050;-68
2021/06/05 05:19:42;;;;;;;0.17;0.17;;;13.10;69.50;;;;;;5112275;28;20051;-68
2021/06/05 05:22:08;;;;;;;0.20;0.20;;;13.10;69.50;;;;;;5111054;28;20075;-68
2021/06/05 05:24:35;;;;;;;0.30;0.30;;;13.10;69.60;;;;;;5091109;28;20079;-68
2021/06/05 05:27:01;;;;;;;0.28;0.28;;;13.10;70.00;;;;;;5111841;28;20144;-68
2021/06/05 05:29:28;;;;;;;0.13;0.13;;;13.10;70.20;;;;;;5112222;28;20055;-68
2021/06/05 05:31:54;;;;;;;0.30;0.30;;;13.20;70.40;;;;;;5093452;28;20051;-68
2021/06/05 05:34:20;;;;;;;0.73;0.40;;;13.20;70.40;;;;;;5112048;28;20123;-68
2021/06/05 05:36:47;;;;;;;0.20;0.20;;;13.20;70.30;;;;;;5112090;28;20700;-68
2021/06/05 05:39:17;;;;;;;0.30;0.30;;;13.20;70.60;;;;;;5111591;28;20088;-68
2021/06/05 05:41:44;;;;;;;0.50;0.40;;;13.20;70.80;;;;;;5103763;28;20067;-69
2021/06/05 05:44:11;;;;;;;0.20;0.20;;;13.20;71.10;;;;;;5111686;28;20081;-68
2021/06/05 05:46:39;;;;;;;0.10;0.10;;;13.20;71.20;;;;;;5111685;28;20534;-69
2021/06/05 05:49:06;;;;;;;0.30;0.30;;;13.30;71.10;;;;;;5111687;28;20155;-68
2021/06/05 05:51:32;;;;;;;0.40;0.30;;;13.30;71.40;;;;;;5111838;28;20096;-68
2021/06/05 05:53:59;;;;;;;0.32;0.32;;;13.30;71.50;;;;;;5111474;28;20499;-68
2021/06/05 05:56:28;;;;;;;0.28;0.28;;;13.30;71.70;;;;;;5111976;28;20066;-68
2021/06/05 05:58:56;;;;;;;0.40;0.40;;;13.40;72.00;;;;;;5113937;28;20043;-68
2021/06/05 06:01:26;;;;;;;0.30;0.30;;;13.40;72.00;;;;;;5096748;28;20095;-68
2021/06/05 06:03:56;;;;;;;0.32;0.20;;;13.40;72.10;;;;;;5092886;28;20054;-68
2021/06/05 06:06:25;;;;;;;0.30;0.28;;;13.40;72.00;;;;;;5111629;28;20035;-68
2021/06/05 06:08:53;;;;;;;0.30;0.30;;;13.50;72.10;;;;;;5111673;28;20138;-68
2021/06/05 06:11:19;;;;;;;0.40;0.30;;;13.50;72.10;;;;;;5093298;28;20111;-69
2021/06/05 06:13:46;;;;;;;0.30;0.30;;;13.60;72.60;;;;;;5115824;28;20140;-69
2021/06/05 06:16:15;;;;;;;0.50;0.43;;;13.60;72.50;;;;;;5111003;28;20177;-69
2021/06/05 06:18:43;;;;;;;0.32;0.32;;;13.70;72.60;;;;;;5116884;28;20039;-69
2021/06/05 06:21:12;;;;;;;0.35;0.32;;;13.70;72.60;;;;;;5120868;28;20067;-68
2021/06/05 06:23:40;;;;;;;0.73;0.40;;;13.80;72.50;;;;;;5111523;28;20054;-69
2021/06/05 06:26:11;;;;;;;0.20;0.20;;;13.90;73.60;;;;;;5111397;28;20122;-69
2021/06/05 06:28:39;;;;;;;0.25;0.22;;;13.90;72.70;;;;;;5111082;28;20047;-68
2021/06/05 06:31:08;;;;;;;0.47;0.30;;;14.00;72.90;;;;;;5121136;28;20048;-68
2021/06/05 06:33:34;;;;;;;0.22;0.22;;;14.10;73.00;;;;;;5113577;28;20047;-68
2021/06/05 06:36:01;;;;;;;0.77;0.47;;;14.10;73.10;;;;;;5115260;28;20130;-69
2021/06/05 06:38:37;;;;;;;0.30;0.30;;;14.20;73.10;;;;;;5114855;28;20131;-69
2021/06/05 06:41:08;;;;;;;0.20;0.20;;;14.20;73.20;;;;;;5102770;28;20047;-68
2021/06/05 06:43:35;;;;;;;0.40;0.40;;;14.30;73.30;;;;;;5114845;28;20116;-68
2021/06/05 06:46:07;;;;;;;0.35;0.35;;;14.40;73.50;;;;;;5114444;28;20537;-68
2021/06/05 06:48:34;;;;;;;0.30;0.30;;;14.40;73.40;;;;;;5114968;28;20086;-68
2021/06/05 06:51:01;;;;;;;0.45;0.30;;;14.50;73.20;;;;;;5114617;28;20039;-68
2021/06/05 06:53:28;;;;;;;0.20;0.20;;;14.60;73.30;;;;;;5114918;28;20422;-69
2021/06/05 06:55:54;;;;;;;0.30;0.30;;;14.60;73.20;;;;;;5114831;28;20058;-68
2021/06/05 06:58:21;;;;;;;0.10;0.10;;;14.70;73.40;;;;;;5125711;27;20181;-68
2021/06/05 07:00:48;;;;;;;0.32;0.32;;;14.80;73.30;;;;;;5124867;27;20126;-68
2021/06/05 07:03:15;;;;;;;0.43;0.30;;;14.90;73.30;;;;;;5114010;28;20035;-68
2021/06/05 07:05:41;;;;;;;0.32;0.32;;;15.00;73.20;;;;;;5117434;27;20577;-68
2021/06/05 07:08:21;;;;;;;0.30;0.30;;;15.10;73.10;;;;;;5114451;27;20098;-68
2021/06/05 07:10:51;;;;;;;0.43;0.40;;;15.20;73.00;;;;;;5114341;28;20184;-68
2021/06/05 07:13:18;;;;;;;0.70;0.40;;;15.20;73.00;;;;;;5114045;28;20180;-68
2021/06/05 07:15:44;;;;;;;0.32;0.30;;;15.30;72.90;;;;;;5114452;28;20079;-68
2021/06/05 07:18:12;;;;;;;0.35;0.35;;;15.40;72.70;;;;;;5128348;27;20053;-68
2021/06/05 07:20:40;;;;;;;0.40;0.22;;;15.50;73.50;;;;;;5096084;28;20131;-68
2021/06/05 07:23:07;;;;;;;0.50;0.40;;;15.60;72.50;;;;;;5114309;28;20506;-68
2021/06/05 07:25:34;;;;;;;0.30;0.30;;;15.80;72.40;;;;;;5114327;28;20164;-68
2021/06/05 07:28:11;;;;;;;0.35;0.35;;;15.90;72.00;;;;;;5113994;28;20512;-68
2021/06/05 07:30:37;;;;;;;0.50;0.50;;;16.00;71.60;;;;;;5114216;28;20056;-68
2021/06/05 07:33:03;;;;;;;0.60;0.40;;;16.10;71.50;;;;;;5113769;28;20079;-68
2021/06/05 07:35:30;;;;;;;0.65;0.60;;;16.30;70.90;;;;;;5114186;28;20138;-68
2021/06/05 07:37:56;;;;;;;0.45;0.30;;;16.40;70.20;;;;;;5107219;27;20045;-68
2021/06/05 07:40:23;;;;;;;0.60;0.40;;;16.50;69.90;;;;;;5097618;27;20122;-68
2021/06/05 07:42:49;;;;;;;0.50;0.50;;;16.60;69.70;;;;;;5096531;27;20051;-68
2021/06/05 07:45:16;;;;;;;1.08;0.70;;;16.70;68.70;;;;;;5093039;28;20118;-68
2021/06/05 07:47:42;;;;;;;0.30;0.30;;;16.80;68.40;;;;;;5098779;27;20059;-68
2021/06/05 07:50:12;;;;;;;1.15;0.55;;;16.90;68.30;;;;;;5097911;27;20051;-68
2021/06/05 07:52:38;;;;;;;0.47;0.30;;;17.00;68.20;;;;;;5100821;27;20071;-68
2021/06/05 07:55:07;;;;;;;0.40;0.40;;;17.20;68.10;;;;;;5096218;27;20147;-68
2021/06/05 07:57:34;;;;;;;0.32;0.30;;;17.30;67.80;;;;;;5097428;27;20462;-68
2021/06/05 08:00:01;;;;;;;0.20;0.20;;;17.40;67.50;;;;;;5075780;28;20555;-68
2021/06/05 08:02:27;;;;;;;0.40;0.30;;;17.60;66.90;;;;;;5114245;27;20112;-68
2021/06/05 08:04:53;;;;;;;0.30;0.30;;;17.80;66.00;;;;;;5121734;27;20129;-68
2021/06/05 08:07:20;;;;;;;0.20;0.20;;;17.90;65.10;;;;;;5126936;27;20078;-68
2021/06/05 08:09:46;;;;;;;0.25;0.25;;;18.00;63.70;;;;;;5131227;27;20413;-68
2021/06/05 08:12:12;;;;;;;0.50;0.50;;;18.10;63.30;;;;;;5113929;28;20123;-68
2021/06/05 08:14:39;;;;;;;0.55;0.40;;;18.20;63.10;;;;;;5112726;28;20856;-68
2021/06/05 08:17:05;;;;;;;0.68;0.57;;;18.30;62.90;;;;;;5121449;27;20125;-66
2021/06/05 08:19:31;;;;;;;0.30;0.30;;;18.40;62.50;;;;;;5113590;27;20377;-67
2021/06/05 08:21:58;;;;;;;0.45;0.40;;;18.60;63.60;;;;;;5112858;27;20123;-68
2021/06/05 08:24:24;;;;;;;0.40;0.40;;;18.70;62.60;;;;;;5114623;27;20047;-68
2021/06/05 08:26:52;;;;;;;0.30;0.30;;;18.90;62.70;;;;;;5110325;27;20047;-68
2021/06/05 08:29:19;;;;;;;0.68;0.47;;;19.10;62.20;;;;;;5094978;28;20159;-68
2021/06/05 08:31:49;;;;;;;0.50;0.50;;;19.30;60.50;;;;;;5113537;27;20127;-67
2021/06/05 08:34:16;;;;;;;0.40;0.40;;;19.40;59.80;;;;;;5119691;27;20045;-67
2021/06/05 08:36:44;;;;;;;0.55;0.50;;;19.50;59.00;;;;;;5127065;27;20096;-68
2021/06/05 08:39:12;;;;;;;0.60;0.60;;;19.60;58.60;;;;;;5121661;27;20039;-68
2021/06/05 08:41:47;;;;;;;0.35;0.35;;;19.70;57.80;;;;;;5095206;27;20415;-68
2021/06/05 08:44:20;;;;;;;0.38;0.38;;;19.80;58.00;;;;;;5096914;27;20503;-67
2021/06/05 08:47:00;;;;;;;0.40;0.40;;;19.90;57.50;;;;;;5099219;27;20152;-68
2021/06/05 08:49:30;;;;;;;0.50;0.47;;;20.00;56.90;;;;;;5111157;27;20052;-68
2021/06/05 08:52:17;;;;;;;0.28;0.25;;;20.10;56.90;;;;;;5112430;27;20071;-68
2021/06/05 08:54:55;;;;;;;0.35;0.35;;;20.20;56.70;;;;;;5109897;28;20100;-68
2021/06/05 08:57:30;;;;;;;0.32;0.32;;;20.40;56.20;;;;;;5114309;27;20156;-68
2021/06/05 09:00:08;;;;;;;0.35;0.35;;;20.50;55.30;;;;;;5113923;27;20174;-68
2021/06/05 09:02:37;;;;;;;0.40;0.40;;;20.70;55.70;;;;;;5114994;27;20040;-68
2021/06/05 09:05:10;;;;;;;0.45;0.40;;;20.80;54.30;;;;;;5113272;27;20195;-68
2021/06/05 09:07:36;;;;;;;0.38;0.38;;;20.90;53.70;;;;;;5117458;27;20051;-68
2021/06/05 09:10:07;;;;;;;0.45;0.45;;;21.10;54.00;;;;;;5113479;27;20579;-68
2021/06/05 09:12:34;;;;;;;0.30;0.30;;;21.20;53.70;;;;;;5104050;28;20047;-68
2021/06/05 09:15:00;;;;;;;0.40;0.40;;;21.30;53.20;;;;;;5097288;27;20150;-67
2021/06/05 09:17:45;;;;;;;0.30;0.30;;;21.40;53.10;;;;;;5113470;27;20202;-66
2021/06/05 09:20:37;;;;;;;0.40;0.40;;;21.50;51.00;;;;;;5107877;27;20095;-65
2021/06/05 09:23:33;;;;;;;0.30;0.30;;;21.60;49.70;;;;;;5127830;27;20075;-65
2021/06/05 09:26:26;;;;;;;0.40;0.40;;;21.70;50.10;;;;;;5112057;27;20047;-65
2021/06/05 09:29:16;;;;;;;0.28;0.28;;;21.80;50.00;;;;;;5126419;27;20062;-65
2021/06/05 09:32:09;;;;;;;0.50;0.50;;;21.80;49.60;;;;;;5126873;27;20393;-65
2021/06/05 09:34:39;;;;;;;0.40;0.40;;;21.80;49.00;;;;;;5112838;27;20430;-65
2021/06/05 09:37:24;;;;;;;0.52;0.50;;;21.90;49.40;;;;;;5126522;28;20126;-65
2021/06/05 09:40:08;;;;;;;0.45;0.45;;;22.00;49.40;;;;;;5119838;28;20185;-65
2021/06/05 09:42:41;;;;;;;0.57;0.57;;;22.10;48.90;;;;;;5115776;28;20050;-65
2021/06/05 09:45:23;;;;;;;0.43;0.43;;;22.20;49.00;;;;;;5114808;28;20177;-65
2021/06/05 09:47:51;;;;;;;0.40;0.40;;;22.40;48.50;;;;;;5069864;28;20550;-65
2021/06/05 09:50:36;;;;;;;0.60;0.43;;;22.40;47.50;;;;;;5125476;28;20137;-65
2021/06/05 09:53:31;;;;;;;0.45;0.45;;;22.40;47.30;;;;;;5126904;28;20130;-65
2021/06/05 09:56:21;;;;;;;0.30;0.30;;;22.40;46.90;;;;;;5125972;28;20126;-65
2021/06/05 09:59:00;;;;;;;0.50;0.50;;;22.40;46.50;;;;;;5127575;28;20630;-65
2021/06/05 10:01:29;;;;;;;0.60;0.30;;;22.50;46.00;;;;;;5129217;28;20050;-65
2021/06/05 10:04:10;;;;;;;0.50;0.50;;;22.50;45.70;;;;;;5127556;28;20039;-65
2021/06/05 10:06:46;;;;;;;0.45;0.40;;;22.50;45.00;;;;;;5128675;28;20084;-65
2021/06/05 10:09:36;;;;;;;0.20;0.20;;;22.50;45.40;;;;;;5129424;27;20043;-65
2021/06/05 10:12:12;;;;;;;0.28;0.28;;;22.50;45.40;;;;;;5115588;28;20124;-65
2021/06/05 10:14:48;;;;;;;0.30;0.30;;;22.60;44.80;;;;;;5115469;28;20487;-65
2021/06/05 10:17:28;;;;;;;0.30;0.30;;;22.60;43.60;;;;;;5115373;28;20132;-65
2021/06/05 10:20:19;;;;;;;0.40;0.40;;;22.70;43.70;;;;;;5097816;28;20128;-66
2021/06/05 10:22:49;;;;;;;0.22;0.22;;;22.70;43.90;;;;;;5114845;28;20508;-66
2021/06/05 10:25:31;;;;;;;0.73;0.50;;;22.70;44.90;;;;;;5114681;28;20120;-65
2021/06/05 10:28:04;;;;;;;0.60;0.50;;;22.60;43.90;;;;;;5115391;28;20048;-66
2021/06/05 10:30:52;;;;;;;0.45;0.35;;;22.60;43.60;;;;;;5115066;28;20047;-65
2021/06/05 10:33:52;;;;;;;0.60;0.30;;;22.50;43.20;;;;;;5115165;28;20132;-65
2021/06/05 10:36:25;;;;;;;0.40;0.30;;;22.30;42.50;;;;;;5104476;28;20043;-65
2021/06/05 10:39:00;;;;;;;0.40;0.40;;;22.00;42.40;;;;;;5114835;28;20052;-65
2021/06/05 10:41:30;;;;;;;0.30;0.30;;;21.60;43.10;;;;;;5115041;28;20501;-66
2021/06/05 10:43:57;;;;;;;0.68;0.40;;;21.40;45.00;;;;;;5114193;28;20130;-66
2021/06/05 10:47:10;;;;;;;0.70;0.70;;;21.40;45.90;;;;;;5114953;28;20108;-66
2021/06/05 10:49:56;;;;;;;0.52;0.40;;;21.40;46.00;;;;;;5021410;28;20053;-66
2021/06/05 10:52:43;;;;;;;0.50;0.50;;;21.30;46.00;;;;;;5031917;28;20053;-66
2021/06/05 10:55:24;;;;;;;0.50;0.50;;;21.30;46.30;;;;;;5031459;28;20156;-66
2021/06/05 10:58:10;;;;;;;;;;;21.20;46.40;;;;;;5032327;28;20503;-66
2021/06/05 11:00:42;;;;;;;0.40;0.40;;;21.20;46.40;;;;;;5031469;28;20063;-66
2021/06/05 11:03:10;;;;;;;0.40;0.40;;;21.10;46.00;;;;;;5031856;28;20171;-66
2021/06/05 11:05:42;;;;;;;0.40;0.40;;;21.10;46.10;;;;;;5031343;28;20042;-65
2021/06/05 11:08:08;;;;;;;0.35;0.35;;;21.00;46.10;;;;;;5031330;28;20050;-65
2021/06/05 11:10:47;;;;;;;0.30;0.30;;;21.00;46.30;;;;;;5031210;28;20622;-66
2021/06/05 11:13:32;;;;;;;0.38;0.38;;;21.00;45.40;;;;;;5031589;28;20107;-66
2021/06/05 11:16:04;;;;;;;0.52;0.40;;;21.10;46.10;;;;;;5031569;28;20136;-65
2021/06/05 11:19:08;;;;;;;0.32;0.32;;;21.10;46.50;;;;;;5030868;28;20125;-65
2021/06/05 11:21:34;;;;;;;0.30;0.20;;;21.10;46.50;;;;;;5018375;28;20092;-65
2021/06/05 11:24:01;;;;;;;0.40;0.40;;;21.20;45.90;;;;;;5031248;28;20042;-65
2021/06/05 11:26:39;;;;;;;0.43;0.43;;;21.20;45.70;;;;;;5083031;28;20083;-65
2021/06/05 11:29:21;;;;;;;0.40;0.40;;;21.20;45.50;;;;;;5113452;28;20142;-65
2021/06/05 11:31:54;;;;;;;0.50;0.40;;;21.20;45.50;;;;;;5113715;28;20075;-65
2021/06/05 11:34:29;;;;;;;0.40;0.38;;;21.30;45.90;;;;;;5113302;28;20140;-65
2021/06/05 11:37:06;;;;;;;0.35;0.30;;;21.30;45.90;;;;;;5134388;27;20383;-65
2021/06/05 11:39:33;;;;;;;0.30;0.30;;;21.30;44.80;;;;;;5134446;27;20055;-65
2021/06/05 11:42:04;;;;;;;0.35;0.30;;;21.30;44.90;;;;;;5121550;27;20054;-66
2021/06/05 11:44:41;;;;;;;0.73;0.65;;;21.30;45.00;;;;;;5133500;27;20126;-66
2021/06/05 11:47:17;;;;;;;1.27;0.55;;;21.30;45.40;;;;;;5134249;27;20107;-65
2021/06/05 11:49:49;;;;;;;0.35;0.35;;;21.30;45.70;;;;;;5133209;27;20082;-65
2021/06/05 11:52:32;;;;;;;0.40;0.40;;;21.30;46.30;;;;;;5134162;27;20398;-65
2021/06/05 11:55:02;;;;;;;0.52;0.50;;;21.40;45.90;;;;;;5134054;27;20122;-66
2021/06/05 11:57:38;;;;;;;0.40;0.40;;;21.30;46.10;;;;;;5133827;27;20126;-66
2021/06/05 12:00:08;;;;;;;0.35;0.35;;;21.30;46.00;;;;;;5133618;27;20049;-66
2021/06/05 12:02:43;;;;;;;0.57;0.57;;;21.30;44.90;;;;;;5130654;27;20039;-66
2021/06/05 12:05:17;;;;;;;0.70;0.50;;;21.30;44.90;;;;;;5133457;27;20414;-66
2021/06/05 12:07:44;;;;;;;0.35;0.35;;;21.30;44.40;;;;;;5131090;27;20051;-66
2021/06/05 12:10:29;;;;;;;0.40;0.40;;;21.20;44.80;;;;;;5113149;28;20103;-66
2021/06/05 12:12:55;;;;;;;0.60;0.60;;;21.20;44.50;;;;;;5113333;28;20502;-66
2021/06/05 12:15:25;;;;;;;0.50;0.50;;;21.20;44.20;;;;;;5112751;28;20051;-65
2021/06/05 12:18:00;;;;;;;0.40;0.40;;;21.20;44.50;;;;;;5112583;28;20491;-66
2021/06/05 12:20:39;;;;;;;0.38;0.35;;;21.20;44.10;;;;;;5112845;28;20553;-66
2021/06/05 12:23:30;;;;;;;0.43;0.40;;;21.20;44.80;;;;;;5112827;28;20055;-65
2021/06/05 12:26:11;;;;;;;0.35;0.30;;;21.20;44.70;;;;;;5100594;28;20538;-65
2021/06/05 12:28:38;;;;;;;;;;;21.20;44.30;;;;;;5113039;28;20496;-65
2021/06/05 12:31:28;;;;;;;0.57;0.50;;;21.20;45.00;;;;;;5112638;28;19984;-66
2021/06/05 12:34:01;;;;;;;0.50;0.50;;;21.20;44.70;;;;;;5110133;28;20388;-66
2021/06/05 12:36:43;;;;;;;0.35;0.35;;;21.20;45.30;;;;;;5112952;28;20055;-65
2021/06/05 12:39:34;;;;;;;0.30;0.30;;;21.20;45.30;;;;;;5111405;28;20172;-65
2021/06/05 12:42:01;;;;;;;0.30;0.30;;;21.20;45.70;;;;;;5112577;27;20043;-65
2021/06/05 12:44:32;;;;;;;0.60;0.60;;;21.20;46.00;;;;;;5126400;27;20495;-65
2021/06/05 12:47:02;;;;;;;0.30;0.30;;;21.20;45.80;;;;;;5112446;28;20527;-65
2021/06/05 12:49:30;;;;;;;0.77;0.77;;;21.20;46.00;;;;;;5098393;28;20055;-65
2021/06/05 12:52:03;;;;;;;0.50;0.50;;;21.20;46.20;;;;;;5112278;28;20051;-65
2021/06/05 12:54:45;;;;;;;0.30;0.30;;;21.30;45.50;;;;;;5112510;28;20051;-65
2021/06/05 12:57:34;;;;;;;0.30;0.30;;;21.30;45.70;;;;;;5112742;28;20052;-66
2021/06/05 13:00:39;;;;;;;0.22;0.22;;;21.30;45.00;;;;;;5100581;28;20054;-66
2021/06/05 13:03:05;;;;;;;0.30;0.30;;;21.40;44.20;;;;;;5100276;28;20071;-66
2021/06/05 13:05:35;;;;;;;0.40;0.40;;;21.40;43.40;;;;;;5112696;28;20043;-66
2021/06/05 13:08:17;;;;;;;0.70;0.70;;;21.40;42.60;;;;;;5111641;28;20083;-65
2021/06/05 13:10:51;;;;;;;0.40;0.40;;;21.30;43.60;;;;;;5111766;28;20563;-65